sensor_id;sensor_type;location;lat;lon;timestamp;P1;durP1;ratioP1;P2;durP2;ratioP2
79367;SDS011;68834;53.152;17.962;2023-04-15T00:01:40;11.00;;;7.70;;
79367;SDS011;68834;53.152;17.962;2023-04-15T00:04:06;10.60;;;6.50;;
79367;SDS011;68834;53.152;17.962;2023-04-15T00:06:33;10.70;;;7.90;;
79367;SDS011;68834;53.152;17.962;2023-04-15T00:09:00;12.40;;;7.40;;
79367;SDS011;68834;53.152;17.962;2023-04-15T00:11:27;11.80;;;8.70;;
79367;SDS011;68834;53.152;17.962;2023-04-15T00:13:54;13.40;;;8.70;;
79367;SDS011;68834;53.152;17.962;2023-04-15T00:16:20;13.90;;;7.70;;
79367;SDS011;68834;53.152;17.962;2023-04-15T00:18:47;13.00;;;8.20;;
79367;SDS011;68834;53.152;17.962;2023-04-15T00:21:13;12.00;;;7.60;;
79367;SDS011;68834;53.152;17.962;2023-04-15T00:23:40;10.60;;;7.20;;
79367;SDS011;68834;53.152;17.962;2023-04-15T00:26:07;9.30;;;6.80;;
79367;SDS011;68834;53.152;17.962;2023-04-15T00:28:34;11.90;;;7.30;;
79367;SDS011;68834;53.152;17.962;2023-04-15T00:31:00;13.20;;;8.40;;
79367;SDS011;68834;53.152;17.962;2023-04-15T00:33:27;10.10;;;7.00;;
79367;SDS011;68834;53.152;17.962;2023-04-15T00:35:54;12.80;;;8.60;;
79367;SDS011;68834;53.152;17.962;2023-04-15T00:38:20;10.60;;;7.70;;
79367;SDS011;68834;53.152;17.962;2023-04-15T00:40:47;11.90;;;8.10;;
79367;SDS011;68834;53.152;17.962;2023-04-15T00:43:13;10.50;;;6.70;;
79367;SDS011;68834;53.152;17.962;2023-04-15T00:45:41;9.40;;;7.40;;
79367;SDS011;68834;53.152;17.962;2023-04-15T00:48:09;27.60;;;10.00;;
79367;SDS011;68834;53.152;17.962;2023-04-15T00:50:36;10.20;;;7.20;;
79367;SDS011;68834;53.152;17.962;2023-04-15T00:53:04;8.40;;;5.80;;
79367;SDS011;68834;53.152;17.962;2023-04-15T00:55:31;11.90;;;7.90;;
79367;SDS011;68834;53.152;17.962;2023-04-15T00:57:58;9.80;;;7.00;;
79367;SDS011;68834;53.152;17.962;2023-04-15T01:00:25;16.30;;;9.40;;
79367;SDS011;68834;53.152;17.962;2023-04-15T01:02:52;15.50;;;8.10;;
79367;SDS011;68834;53.152;17.962;2023-04-15T01:05:19;13.50;;;8.50;;
79367;SDS011;68834;53.152;17.962;2023-04-15T01:07:46;13.10;;;7.70;;
79367;SDS011;68834;53.152;17.962;2023-04-15T01:10:14;12.10;;;8.40;;
79367;SDS011;68834;53.152;17.962;2023-04-15T01:12:41;11.50;;;7.10;;
79367;SDS011;68834;53.152;17.962;2023-04-15T01:15:08;15.10;;;8.60;;
79367;SDS011;68834;53.152;17.962;2023-04-15T01:17:36;11.30;;;6.90;;
79367;SDS011;68834;53.152;17.962;2023-04-15T01:20:07;13.70;;;8.80;;
79367;SDS011;68834;53.152;17.962;2023-04-15T01:22:37;11.30;;;7.10;;
79367;SDS011;68834;53.152;17.962;2023-04-15T01:25:11;17.10;;;9.50;;
79367;SDS011;68834;53.152;17.962;2023-04-15T01:27:41;11.00;;;7.60;;
79367;SDS011;68834;53.152;17.962;2023-04-15T01:30:09;11.30;;;7.50;;
79367;SDS011;68834;53.152;17.962;2023-04-15T01:32:37;11.50;;;7.50;;
79367;SDS011;68834;53.152;17.962;2023-04-15T01:35:04;11.80;;;7.50;;
79367;SDS011;68834;53.152;17.962;2023-04-15T01:37:31;11.00;;;7.10;;
79367;SDS011;68834;53.152;17.962;2023-04-15T01:39:58;9.60;;;7.00;;
79367;SDS011;68834;53.152;17.962;2023-04-15T01:42:25;10.70;;;7.30;;
79367;SDS011;68834;53.152;17.962;2023-04-15T01:44:52;7.60;;;5.30;;
79367;SDS011;68834;53.152;17.962;2023-04-15T01:47:19;13.70;;;8.30;;
79367;SDS011;68834;53.152;17.962;2023-04-15T01:49:47;12.80;;;8.40;;
79367;SDS011;68834;53.152;17.962;2023-04-15T01:52:13;13.50;;;8.10;;
79367;SDS011;68834;53.152;17.962;2023-04-15T01:54:41;10.90;;;7.10;;
79367;SDS011;68834;53.152;17.962;2023-04-15T01:57:07;10.60;;;6.30;;
79367;SDS011;68834;53.152;17.962;2023-04-15T01:59:35;10.90;;;7.00;;
79367;SDS011;68834;53.152;17.962;2023-04-15T02:02:02;10.90;;;6.70;;
79367;SDS011;68834;53.152;17.962;2023-04-15T02:04:29;13.30;;;7.60;;
79367;SDS011;68834;53.152;17.962;2023-04-15T02:06:59;9.60;;;6.00;;
79367;SDS011;68834;53.152;17.962;2023-04-15T02:09:26;11.20;;;7.40;;
79367;SDS011;68834;53.152;17.962;2023-04-15T02:11:52;9.10;;;6.70;;
79367;SDS011;68834;53.152;17.962;2023-04-15T02:14:19;10.40;;;7.70;;
79367;SDS011;68834;53.152;17.962;2023-04-15T02:16:46;11.70;;;7.70;;
79367;SDS011;68834;53.152;17.962;2023-04-15T02:19:14;10.20;;;6.80;;
79367;SDS011;68834;53.152;17.962;2023-04-15T02:21:41;14.80;;;8.00;;
79367;SDS011;68834;53.152;17.962;2023-04-15T02:24:07;10.80;;;7.10;;
79367;SDS011;68834;53.152;17.962;2023-04-15T02:26:34;12.40;;;6.60;;
79367;SDS011;68834;53.152;17.962;2023-04-15T02:29:02;8.40;;;6.20;;
79367;SDS011;68834;53.152;17.962;2023-04-15T02:31:29;7.10;;;5.40;;
79367;SDS011;68834;53.152;17.962;2023-04-15T02:33:56;12.60;;;8.30;;
79367;SDS011;68834;53.152;17.962;2023-04-15T02:36:22;14.80;;;7.10;;
79367;SDS011;68834;53.152;17.962;2023-04-15T02:38:49;8.70;;;6.20;;
79367;SDS011;68834;53.152;17.962;2023-04-15T02:41:16;12.80;;;6.70;;
79367;SDS011;68834;53.152;17.962;2023-04-15T02:43:45;8.60;;;6.40;;
79367;SDS011;68834;53.152;17.962;2023-04-15T02:46:12;13.10;;;8.00;;
79367;SDS011;68834;53.152;17.962;2023-04-15T02:48:40;12.10;;;7.40;;
79367;SDS011;68834;53.152;17.962;2023-04-15T02:51:15;10.20;;;6.90;;
79367;SDS011;68834;53.152;17.962;2023-04-15T02:53:45;10.30;;;6.50;;
79367;SDS011;68834;53.152;17.962;2023-04-15T02:56:12;9.20;;;6.60;;
79367;SDS011;68834;53.152;17.962;2023-04-15T02:58:42;11.30;;;7.10;;
79367;SDS011;68834;53.152;17.962;2023-04-15T03:01:10;12.90;;;7.50;;
79367;SDS011;68834;53.152;17.962;2023-04-15T03:03:37;11.20;;;6.50;;
79367;SDS011;68834;53.152;17.962;2023-04-15T03:06:03;9.80;;;7.60;;
79367;SDS011;68834;53.152;17.962;2023-04-15T03:08:30;8.20;;;5.30;;
79367;SDS011;68834;53.152;17.962;2023-04-15T03:10:57;11.80;;;6.90;;
79367;SDS011;68834;53.152;17.962;2023-04-15T03:13:26;12.20;;;7.20;;
79367;SDS011;68834;53.152;17.962;2023-04-15T03:15:53;10.20;;;6.30;;
79367;SDS011;68834;53.152;17.962;2023-04-15T03:18:21;9.00;;;6.30;;
79367;SDS011;68834;53.152;17.962;2023-04-15T03:20:48;10.30;;;7.00;;
79367;SDS011;68834;53.152;17.962;2023-04-15T03:23:15;9.30;;;5.60;;
79367;SDS011;68834;53.152;17.962;2023-04-15T03:25:43;12.70;;;7.50;;
79367;SDS011;68834;53.152;17.962;2023-04-15T03:28:10;7.40;;;5.20;;
79367;SDS011;68834;53.152;17.962;2023-04-15T03:30:37;8.60;;;6.90;;
79367;SDS011;68834;53.152;17.962;2023-04-15T03:33:04;9.30;;;6.70;;
79367;SDS011;68834;53.152;17.962;2023-04-15T03:35:30;10.90;;;7.60;;
79367;SDS011;68834;53.152;17.962;2023-04-15T03:37:57;10.80;;;5.90;;
79367;SDS011;68834;53.152;17.962;2023-04-15T03:40:23;10.00;;;7.10;;
79367;SDS011;68834;53.152;17.962;2023-04-15T03:42:50;13.00;;;7.40;;
79367;SDS011;68834;53.152;17.962;2023-04-15T03:45:16;9.00;;;6.00;;
79367;SDS011;68834;53.152;17.962;2023-04-15T03:47:43;8.40;;;6.20;;
79367;SDS011;68834;53.152;17.962;2023-04-15T03:50:09;9.10;;;5.90;;
79367;SDS011;68834;53.152;17.962;2023-04-15T03:52:36;10.10;;;7.00;;
79367;SDS011;68834;53.152;17.962;2023-04-15T03:55:03;9.90;;;7.20;;
79367;SDS011;68834;53.152;17.962;2023-04-15T03:57:30;9.50;;;6.40;;
79367;SDS011;68834;53.152;17.962;2023-04-15T03:59:57;10.20;;;7.10;;
79367;SDS011;68834;53.152;17.962;2023-04-15T04:02:24;9.70;;;7.40;;
79367;SDS011;68834;53.152;17.962;2023-04-15T04:04:50;7.50;;;5.30;;
79367;SDS011;68834;53.152;17.962;2023-04-15T04:07:17;10.40;;;6.90;;
79367;SDS011;68834;53.152;17.962;2023-04-15T04:09:44;9.30;;;6.40;;
79367;SDS011;68834;53.152;17.962;2023-04-15T04:12:11;9.70;;;6.20;;
79367;SDS011;68834;53.152;17.962;2023-04-15T04:14:37;9.70;;;6.00;;
79367;SDS011;68834;53.152;17.962;2023-04-15T04:17:04;9.10;;;6.30;;
79367;SDS011;68834;53.152;17.962;2023-04-15T04:19:30;10.80;;;6.60;;
79367;SDS011;68834;53.152;17.962;2023-04-15T04:21:57;7.90;;;5.70;;
79367;SDS011;68834;53.152;17.962;2023-04-15T04:24:24;10.90;;;7.40;;
79367;SDS011;68834;53.152;17.962;2023-04-15T04:26:50;8.10;;;5.10;;
79367;SDS011;68834;53.152;17.962;2023-04-15T04:29:17;8.70;;;6.20;;
79367;SDS011;68834;53.152;17.962;2023-04-15T04:31:43;11.40;;;7.40;;
79367;SDS011;68834;53.152;17.962;2023-04-15T04:34:11;8.90;;;6.00;;
79367;SDS011;68834;53.152;17.962;2023-04-15T04:36:37;6.30;;;4.70;;
79367;SDS011;68834;53.152;17.962;2023-04-15T04:39:04;8.50;;;6.00;;
79367;SDS011;68834;53.152;17.962;2023-04-15T04:41:30;8.10;;;5.50;;
79367;SDS011;68834;53.152;17.962;2023-04-15T04:43:57;7.60;;;4.10;;
79367;SDS011;68834;53.152;17.962;2023-04-15T04:46:24;12.30;;;6.60;;
79367;SDS011;68834;53.152;17.962;2023-04-15T04:48:54;8.30;;;6.80;;
79367;SDS011;68834;53.152;17.962;2023-04-15T04:51:20;7.90;;;5.50;;
79367;SDS011;68834;53.152;17.962;2023-04-15T04:53:47;8.30;;;6.40;;
79367;SDS011;68834;53.152;17.962;2023-04-15T04:56:14;8.60;;;6.70;;
79367;SDS011;68834;53.152;17.962;2023-04-15T04:58:40;10.00;;;7.20;;
79367;SDS011;68834;53.152;17.962;2023-04-15T05:01:07;9.70;;;6.70;;
79367;SDS011;68834;53.152;17.962;2023-04-15T05:03:34;8.30;;;5.80;;
79367;SDS011;68834;53.152;17.962;2023-04-15T05:06:00;10.60;;;6.80;;
79367;SDS011;68834;53.152;17.962;2023-04-15T05:08:31;10.90;;;6.40;;
79367;SDS011;68834;53.152;17.962;2023-04-15T05:10:58;8.90;;;6.50;;
79367;SDS011;68834;53.152;17.962;2023-04-15T05:13:24;12.40;;;6.70;;
79367;SDS011;68834;53.152;17.962;2023-04-15T05:15:51;8.70;;;4.90;;
79367;SDS011;68834;53.152;17.962;2023-04-15T05:18:18;12.50;;;7.80;;
79367;SDS011;68834;53.152;17.962;2023-04-15T05:20:45;10.20;;;6.60;;
79367;SDS011;68834;53.152;17.962;2023-04-15T05:23:12;10.40;;;7.30;;
79367;SDS011;68834;53.152;17.962;2023-04-15T05:25:38;8.70;;;6.90;;
79367;SDS011;68834;53.152;17.962;2023-04-15T05:28:05;8.80;;;6.10;;
79367;SDS011;68834;53.152;17.962;2023-04-15T05:30:32;7.40;;;5.90;;
79367;SDS011;68834;53.152;17.962;2023-04-15T05:32:59;10.70;;;6.60;;
79367;SDS011;68834;53.152;17.962;2023-04-15T05:35:26;9.60;;;5.80;;
79367;SDS011;68834;53.152;17.962;2023-04-15T05:37:53;9.90;;;6.70;;
79367;SDS011;68834;53.152;17.962;2023-04-15T05:40:19;14.30;;;7.40;;
79367;SDS011;68834;53.152;17.962;2023-04-15T05:42:46;9.30;;;6.30;;
79367;SDS011;68834;53.152;17.962;2023-04-15T05:45:12;9.20;;;5.30;;
79367;SDS011;68834;53.152;17.962;2023-04-15T05:47:39;17.20;;;6.80;;
79367;SDS011;68834;53.152;17.962;2023-04-15T05:50:06;9.50;;;6.20;;
79367;SDS011;68834;53.152;17.962;2023-04-15T05:52:32;7.60;;;6.00;;
79367;SDS011;68834;53.152;17.962;2023-04-15T05:54:59;4.60;;;3.10;;
79367;SDS011;68834;53.152;17.962;2023-04-15T05:57:26;11.90;;;7.00;;
79367;SDS011;68834;53.152;17.962;2023-04-15T05:59:52;7.60;;;5.20;;
79367;SDS011;68834;53.152;17.962;2023-04-15T06:02:19;11.20;;;6.90;;
79367;SDS011;68834;53.152;17.962;2023-04-15T06:04:46;6.80;;;4.40;;
79367;SDS011;68834;53.152;17.962;2023-04-15T06:07:13;6.30;;;4.40;;
79367;SDS011;68834;53.152;17.962;2023-04-15T06:09:39;7.90;;;6.20;;
79367;SDS011;68834;53.152;17.962;2023-04-15T06:12:06;9.20;;;6.00;;
79367;SDS011;68834;53.152;17.962;2023-04-15T06:14:37;12.10;;;6.80;;
79367;SDS011;68834;53.152;17.962;2023-04-15T06:17:05;9.30;;;6.90;;
79367;SDS011;68834;53.152;17.962;2023-04-15T06:19:33;19.00;;;10.90;;
79367;SDS011;68834;53.152;17.962;2023-04-15T06:22:00;12.30;;;8.10;;
79367;SDS011;68834;53.152;17.962;2023-04-15T06:24:27;10.80;;;6.40;;
79367;SDS011;68834;53.152;17.962;2023-04-15T06:26:54;10.60;;;6.30;;
79367;SDS011;68834;53.152;17.962;2023-04-15T06:29:21;9.10;;;6.50;;
79367;SDS011;68834;53.152;17.962;2023-04-15T06:31:48;12.70;;;8.30;;
79367;SDS011;68834;53.152;17.962;2023-04-15T06:34:15;10.50;;;7.10;;
79367;SDS011;68834;53.152;17.962;2023-04-15T06:36:42;12.20;;;9.00;;
79367;SDS011;68834;53.152;17.962;2023-04-15T06:39:08;11.90;;;8.50;;
79367;SDS011;68834;53.152;17.962;2023-04-15T06:41:35;12.60;;;8.50;;
79367;SDS011;68834;53.152;17.962;2023-04-15T06:44:02;11.20;;;7.60;;
79367;SDS011;68834;53.152;17.962;2023-04-15T06:46:29;10.90;;;8.00;;
79367;SDS011;68834;53.152;17.962;2023-04-15T06:48:56;11.60;;;8.40;;
79367;SDS011;68834;53.152;17.962;2023-04-15T06:51:22;10.20;;;7.50;;
79367;SDS011;68834;53.152;17.962;2023-04-15T06:53:49;15.70;;;9.30;;
79367;SDS011;68834;53.152;17.962;2023-04-15T06:56:15;14.10;;;9.60;;
79367;SDS011;68834;53.152;17.962;2023-04-15T06:58:42;13.40;;;9.70;;
79367;SDS011;68834;53.152;17.962;2023-04-15T07:01:08;12.00;;;9.00;;
79367;SDS011;68834;53.152;17.962;2023-04-15T07:03:35;11.50;;;9.10;;
79367;SDS011;68834;53.152;17.962;2023-04-15T07:06:02;10.50;;;7.80;;
79367;SDS011;68834;53.152;17.962;2023-04-15T07:08:32;11.30;;;8.10;;
79367;SDS011;68834;53.152;17.962;2023-04-15T07:10:59;14.60;;;9.10;;
79367;SDS011;68834;53.152;17.962;2023-04-15T07:13:26;11.00;;;9.00;;
79367;SDS011;68834;53.152;17.962;2023-04-15T07:15:55;14.00;;;9.90;;
79367;SDS011;68834;53.152;17.962;2023-04-15T07:18:22;14.20;;;8.60;;
79367;SDS011;68834;53.152;17.962;2023-04-15T07:20:49;15.40;;;8.40;;
79367;SDS011;68834;53.152;17.962;2023-04-15T07:23:15;11.50;;;7.70;;
79367;SDS011;68834;53.152;17.962;2023-04-15T07:25:42;12.20;;;8.50;;
79367;SDS011;68834;53.152;17.962;2023-04-15T07:28:08;13.80;;;8.90;;
79367;SDS011;68834;53.152;17.962;2023-04-15T07:30:36;12.00;;;7.90;;
79367;SDS011;68834;53.152;17.962;2023-04-15T07:33:02;13.90;;;10.10;;
79367;SDS011;68834;53.152;17.962;2023-04-15T07:35:29;12.70;;;9.70;;
79367;SDS011;68834;53.152;17.962;2023-04-15T07:37:55;12.10;;;9.30;;
79367;SDS011;68834;53.152;17.962;2023-04-15T07:40:23;17.00;;;9.20;;
79367;SDS011;68834;53.152;17.962;2023-04-15T07:42:49;12.20;;;9.00;;
79367;SDS011;68834;53.152;17.962;2023-04-15T07:45:16;12.00;;;8.30;;
79367;SDS011;68834;53.152;17.962;2023-04-15T07:47:43;11.50;;;8.70;;
79367;SDS011;68834;53.152;17.962;2023-04-15T07:50:09;10.30;;;6.90;;
79367;SDS011;68834;53.152;17.962;2023-04-15T07:52:40;13.40;;;8.00;;
79367;SDS011;68834;53.152;17.962;2023-04-15T07:55:06;13.40;;;9.60;;
79367;SDS011;68834;53.152;17.962;2023-04-15T07:57:34;11.70;;;8.50;;
79367;SDS011;68834;53.152;17.962;2023-04-15T08:00:02;14.70;;;11.30;;
79367;SDS011;68834;53.152;17.962;2023-04-15T08:02:39;24.10;;;12.00;;
79367;SDS011;68834;53.152;17.962;2023-04-15T08:05:06;15.60;;;8.70;;
79367;SDS011;68834;53.152;17.962;2023-04-15T08:07:34;16.80;;;11.80;;
79367;SDS011;68834;53.152;17.962;2023-04-15T08:10:03;13.40;;;9.50;;
79367;SDS011;68834;53.152;17.962;2023-04-15T08:12:30;13.30;;;10.50;;
79367;SDS011;68834;53.152;17.962;2023-04-15T08:14:57;12.00;;;7.90;;
79367;SDS011;68834;53.152;17.962;2023-04-15T08:17:24;14.50;;;10.00;;
79367;SDS011;68834;53.152;17.962;2023-04-15T08:19:51;12.30;;;8.60;;
79367;SDS011;68834;53.152;17.962;2023-04-15T08:22:19;11.50;;;7.80;;
79367;SDS011;68834;53.152;17.962;2023-04-15T08:24:45;13.70;;;9.20;;
79367;SDS011;68834;53.152;17.962;2023-04-15T08:27:12;15.90;;;11.10;;
79367;SDS011;68834;53.152;17.962;2023-04-15T08:29:39;10.50;;;8.80;;
79367;SDS011;68834;53.152;17.962;2023-04-15T08:32:06;11.00;;;8.80;;
79367;SDS011;68834;53.152;17.962;2023-04-15T08:34:33;15.50;;;9.00;;
79367;SDS011;68834;53.152;17.962;2023-04-15T08:37:00;11.20;;;7.50;;
79367;SDS011;68834;53.152;17.962;2023-04-15T08:39:26;12.40;;;9.40;;
79367;SDS011;68834;53.152;17.962;2023-04-15T08:44:29;12.70;;;9.10;;
79367;SDS011;68834;53.152;17.962;2023-04-15T08:47:01;15.40;;;9.80;;
79367;SDS011;68834;53.152;17.962;2023-04-15T08:49:28;12.70;;;8.90;;
79367;SDS011;68834;53.152;17.962;2023-04-15T08:51:57;12.90;;;7.20;;
79367;SDS011;68834;53.152;17.962;2023-04-15T08:54:25;12.50;;;8.90;;
79367;SDS011;68834;53.152;17.962;2023-04-15T08:56:53;11.90;;;8.30;;
79367;SDS011;68834;53.152;17.962;2023-04-15T08:59:20;11.60;;;8.20;;
79367;SDS011;68834;53.152;17.962;2023-04-15T09:01:48;13.70;;;8.10;;
79367;SDS011;68834;53.152;17.962;2023-04-15T09:04:16;14.60;;;9.90;;
79367;SDS011;68834;53.152;17.962;2023-04-15T09:06:43;12.60;;;8.40;;
79367;SDS011;68834;53.152;17.962;2023-04-15T09:09:11;19.10;;;10.40;;
79367;SDS011;68834;53.152;17.962;2023-04-15T09:11:39;10.50;;;6.30;;
79367;SDS011;68834;53.152;17.962;2023-04-15T09:14:06;12.70;;;7.40;;
79367;SDS011;68834;53.152;17.962;2023-04-15T09:19:23;13.60;;;9.80;;
79367;SDS011;68834;53.152;17.962;2023-04-15T09:21:54;11.90;;;8.00;;
79367;SDS011;68834;53.152;17.962;2023-04-15T09:24:22;14.00;;;9.10;;
79367;SDS011;68834;53.152;17.962;2023-04-15T09:26:53;12.80;;;8.20;;
79367;SDS011;68834;53.152;17.962;2023-04-15T09:29:23;12.10;;;8.30;;
79367;SDS011;68834;53.152;17.962;2023-04-15T09:31:52;9.20;;;7.00;;
79367;SDS011;68834;53.152;17.962;2023-04-15T09:34:18;13.70;;;9.10;;
79367;SDS011;68834;53.152;17.962;2023-04-15T09:36:52;12.80;;;8.60;;
79367;SDS011;68834;53.152;17.962;2023-04-15T09:39:21;12.60;;;8.00;;
79367;SDS011;68834;53.152;17.962;2023-04-15T09:42:04;11.40;;;7.60;;
79367;SDS011;68834;53.152;17.962;2023-04-15T09:44:32;11.00;;;7.90;;
79367;SDS011;68834;53.152;17.962;2023-04-15T09:46:59;9.50;;;7.40;;
79367;SDS011;68834;53.152;17.962;2023-04-15T09:49:26;12.20;;;8.50;;
79367;SDS011;68834;53.152;17.962;2023-04-15T09:51:59;13.60;;;8.80;;
79367;SDS011;68834;53.152;17.962;2023-04-15T09:57:07;9.50;;;6.10;;
79367;SDS011;68834;53.152;17.962;2023-04-15T09:59:35;14.00;;;8.80;;
79367;SDS011;68834;53.152;17.962;2023-04-15T10:02:03;16.90;;;7.50;;
79367;SDS011;68834;53.152;17.962;2023-04-15T10:04:32;11.10;;;7.60;;
79367;SDS011;68834;53.152;17.962;2023-04-15T10:07:02;6.10;;;3.70;;
79367;SDS011;68834;53.152;17.962;2023-04-15T10:09:30;15.10;;;8.50;;
79367;SDS011;68834;53.152;17.962;2023-04-15T10:11:59;14.40;;;7.70;;
79367;SDS011;68834;53.152;17.962;2023-04-15T10:14:27;11.40;;;8.00;;
79367;SDS011;68834;53.152;17.962;2023-04-15T10:16:56;12.80;;;9.20;;
79367;SDS011;68834;53.152;17.962;2023-04-15T10:19:29;9.80;;;7.50;;
79367;SDS011;68834;53.152;17.962;2023-04-15T10:21:57;9.20;;;6.20;;
79367;SDS011;68834;53.152;17.962;2023-04-15T10:26:53;11.50;;;7.30;;
79367;SDS011;68834;53.152;17.962;2023-04-15T10:29:20;7.50;;;5.30;;
79367;SDS011;68834;53.152;17.962;2023-04-15T10:31:51;11.20;;;7.20;;
79367;SDS011;68834;53.152;17.962;2023-04-15T10:34:20;7.10;;;3.60;;
79367;SDS011;68834;53.152;17.962;2023-04-15T10:36:47;11.10;;;7.40;;
79367;SDS011;68834;53.152;17.962;2023-04-15T10:42:06;8.60;;;6.10;;
79367;SDS011;68834;53.152;17.962;2023-04-15T10:44:35;11.80;;;7.60;;
79367;SDS011;68834;53.152;17.962;2023-04-15T10:47:05;11.90;;;8.10;;
79367;SDS011;68834;53.152;17.962;2023-04-15T10:49:42;9.60;;;7.10;;
79367;SDS011;68834;53.152;17.962;2023-04-15T10:52:12;11.50;;;7.00;;
79367;SDS011;68834;53.152;17.962;2023-04-15T10:54:40;12.40;;;8.00;;
79367;SDS011;68834;53.152;17.962;2023-04-15T10:57:08;10.40;;;8.00;;
79367;SDS011;68834;53.152;17.962;2023-04-15T11:05:22;6.30;;;4.60;;
79367;SDS011;68834;53.152;17.962;2023-04-15T11:08:09;8.60;;;6.00;;
79367;SDS011;68834;53.152;17.962;2023-04-15T11:13:04;10.70;;;6.80;;
79367;SDS011;68834;53.152;17.962;2023-04-15T11:15:43;12.00;;;7.80;;
79367;SDS011;68834;53.152;17.962;2023-04-15T11:20:49;9.70;;;6.30;;
79367;SDS011;68834;53.152;17.962;2023-04-15T11:25:54;7.70;;;5.00;;
79367;SDS011;68834;53.152;17.962;2023-04-15T11:28:26;9.70;;;7.10;;
79367;SDS011;68834;53.152;17.962;2023-04-15T11:30:54;8.20;;;6.50;;
79367;SDS011;68834;53.152;17.962;2023-04-15T11:33:21;7.10;;;5.30;;
79367;SDS011;68834;53.152;17.962;2023-04-15T11:35:49;8.40;;;6.10;;
79367;SDS011;68834;53.152;17.962;2023-04-15T11:38:20;10.50;;;7.00;;
79367;SDS011;68834;53.152;17.962;2023-04-15T11:40:47;8.60;;;6.70;;
79367;SDS011;68834;53.152;17.962;2023-04-15T11:43:17;9.90;;;6.60;;
79367;SDS011;68834;53.152;17.962;2023-04-15T11:45:47;27.20;;;18.10;;
79367;SDS011;68834;53.152;17.962;2023-04-15T11:48:18;19.90;;;12.60;;
79367;SDS011;68834;53.152;17.962;2023-04-15T11:50:52;48.10;;;33.50;;
79367;SDS011;68834;53.152;17.962;2023-04-15T11:53:20;21.90;;;19.60;;
79367;SDS011;68834;53.152;17.962;2023-04-15T11:55:48;69.00;;;61.90;;
79367;SDS011;68834;53.152;17.962;2023-04-15T11:58:18;35.80;;;32.20;;
79367;SDS011;68834;53.152;17.962;2023-04-15T12:00:48;17.40;;;15.50;;
79367;SDS011;68834;53.152;17.962;2023-04-15T12:11:31;35.60;;;19.80;;
79367;SDS011;68834;53.152;17.962;2023-04-15T12:14:20;41.00;;;25.60;;
79367;SDS011;68834;53.152;17.962;2023-04-15T12:16:50;127.00;;;64.60;;
79367;SDS011;68834;53.152;17.962;2023-04-15T12:19:24;59.40;;;33.10;;
79367;SDS011;68834;53.152;17.962;2023-04-15T12:21:59;41.60;;;26.20;;
79367;SDS011;68834;53.152;17.962;2023-04-15T12:24:27;39.10;;;22.80;;
79367;SDS011;68834;53.152;17.962;2023-04-15T12:26:56;45.40;;;27.00;;
79367;SDS011;68834;53.152;17.962;2023-04-15T12:29:27;62.00;;;33.60;;
79367;SDS011;68834;53.152;17.962;2023-04-15T12:34:26;14.10;;;9.90;;
79367;SDS011;68834;53.152;17.962;2023-04-15T12:36:55;14.60;;;8.90;;
79367;SDS011;68834;53.152;17.962;2023-04-15T12:39:27;43.30;;;31.20;;
79367;SDS011;68834;53.152;17.962;2023-04-15T12:41:57;182.50;;;124.10;;
79367;SDS011;68834;53.152;17.962;2023-04-15T12:44:25;120.20;;;98.80;;
79367;SDS011;68834;53.152;17.962;2023-04-15T12:46:52;19.40;;;14.00;;
79367;SDS011;68834;53.152;17.962;2023-04-15T12:49:19;8.70;;;6.50;;
79367;SDS011;68834;53.152;17.962;2023-04-15T12:54:15;8.10;;;6.40;;
79367;SDS011;68834;53.152;17.962;2023-04-15T12:56:45;13.40;;;8.40;;
79367;SDS011;68834;53.152;17.962;2023-04-15T12:59:14;10.90;;;7.50;;
79367;SDS011;68834;53.152;17.962;2023-04-15T13:01:43;12.30;;;8.90;;
79367;SDS011;68834;53.152;17.962;2023-04-15T13:04:10;11.40;;;7.10;;
79367;SDS011;68834;53.152;17.962;2023-04-15T13:06:36;10.00;;;6.90;;
79367;SDS011;68834;53.152;17.962;2023-04-15T13:09:03;11.20;;;6.70;;
79367;SDS011;68834;53.152;17.962;2023-04-15T13:11:31;7.70;;;6.00;;
79367;SDS011;68834;53.152;17.962;2023-04-15T13:16:26;9.30;;;6.30;;
79367;SDS011;68834;53.152;17.962;2023-04-15T13:18:53;6.10;;;4.20;;
79367;SDS011;68834;53.152;17.962;2023-04-15T13:21:19;10.00;;;7.00;;
79367;SDS011;68834;53.152;17.962;2023-04-15T13:23:47;10.20;;;6.60;;
79367;SDS011;68834;53.152;17.962;2023-04-15T13:26:15;14.80;;;11.10;;
79367;SDS011;68834;53.152;17.962;2023-04-15T13:28:42;27.50;;;15.90;;
79367;SDS011;68834;53.152;17.962;2023-04-15T13:31:09;15.60;;;11.50;;
79367;SDS011;68834;53.152;17.962;2023-04-15T13:33:36;51.50;;;31.60;;
79367;SDS011;68834;53.152;17.962;2023-04-15T13:36:03;18.40;;;9.90;;
79367;SDS011;68834;53.152;17.962;2023-04-15T13:38:29;17.90;;;11.00;;
79367;SDS011;68834;53.152;17.962;2023-04-15T13:40:56;47.60;;;25.60;;
79367;SDS011;68834;53.152;17.962;2023-04-15T13:43:23;11.50;;;8.50;;
79367;SDS011;68834;53.152;17.962;2023-04-15T13:45:50;10.30;;;6.80;;
79367;SDS011;68834;53.152;17.962;2023-04-15T13:48:17;23.30;;;12.50;;
79367;SDS011;68834;53.152;17.962;2023-04-15T13:50:43;62.80;;;29.20;;
79367;SDS011;68834;53.152;17.962;2023-04-15T13:53:11;13.50;;;7.60;;
79367;SDS011;68834;53.152;17.962;2023-04-15T13:55:38;24.30;;;12.70;;
79367;SDS011;68834;53.152;17.962;2023-04-15T13:58:08;20.40;;;11.50;;
79367;SDS011;68834;53.152;17.962;2023-04-15T14:00:35;21.20;;;12.00;;
79367;SDS011;68834;53.152;17.962;2023-04-15T14:03:02;29.50;;;16.40;;
79367;SDS011;68834;53.152;17.962;2023-04-15T14:05:29;13.90;;;8.90;;
79367;SDS011;68834;53.152;17.962;2023-04-15T14:07:56;12.90;;;7.80;;
79367;SDS011;68834;53.152;17.962;2023-04-15T14:10:24;17.10;;;11.80;;
79367;SDS011;68834;53.152;17.962;2023-04-15T14:12:51;13.10;;;9.20;;
79367;SDS011;68834;53.152;17.962;2023-04-15T14:15:17;11.40;;;8.40;;
79367;SDS011;68834;53.152;17.962;2023-04-15T14:17:44;9.80;;;7.40;;
79367;SDS011;68834;53.152;17.962;2023-04-15T14:20:11;10.00;;;6.80;;
79367;SDS011;68834;53.152;17.962;2023-04-15T14:22:38;16.60;;;7.60;;
79367;SDS011;68834;53.152;17.962;2023-04-15T14:25:05;14.00;;;9.00;;
79367;SDS011;68834;53.152;17.962;2023-04-15T14:27:32;14.30;;;7.30;;
79367;SDS011;68834;53.152;17.962;2023-04-15T14:29:59;11.80;;;7.80;;
79367;SDS011;68834;53.152;17.962;2023-04-15T14:32:26;14.80;;;7.50;;
79367;SDS011;68834;53.152;17.962;2023-04-15T14:34:52;9.40;;;6.30;;
79367;SDS011;68834;53.152;17.962;2023-04-15T14:37:19;12.00;;;6.50;;
79367;SDS011;68834;53.152;17.962;2023-04-15T14:39:46;11.40;;;7.00;;
79367;SDS011;68834;53.152;17.962;2023-04-15T14:42:12;9.10;;;6.00;;
79367;SDS011;68834;53.152;17.962;2023-04-15T14:44:39;8.70;;;5.70;;
79367;SDS011;68834;53.152;17.962;2023-04-15T14:47:06;9.80;;;6.40;;
79367;SDS011;68834;53.152;17.962;2023-04-15T14:49:32;6.90;;;4.80;;
79367;SDS011;68834;53.152;17.962;2023-04-15T14:52:00;5.70;;;4.60;;
79367;SDS011;68834;53.152;17.962;2023-04-15T14:54:27;10.20;;;5.40;;
79367;SDS011;68834;53.152;17.962;2023-04-15T14:56:53;8.50;;;5.70;;
79367;SDS011;68834;53.152;17.962;2023-04-15T14:59:21;8.50;;;4.80;;
79367;SDS011;68834;53.152;17.962;2023-04-15T15:01:48;6.70;;;5.00;;
79367;SDS011;68834;53.152;17.962;2023-04-15T15:04:14;9.50;;;6.10;;
79367;SDS011;68834;53.152;17.962;2023-04-15T15:06:41;8.30;;;6.30;;
79367;SDS011;68834;53.152;17.962;2023-04-15T15:09:08;9.10;;;5.70;;